Time;durP1;ratioP1;P1;durP2;ratioP2;P2;SDS_P1;SDS_P2;PMS_P1;PMS_P2;Temp;Humidity;BMP_temperature;BMP_pressure;BME280_temperature;BME280_humidity;BME280_pressure;Samples;Min_cycle;Max_cycle;Signal;HPM_P1;HPM_P2
2022/02/19 00:09:23;;;;;;;3.30;2.45;;;26.00;48.10;;;;;;21062440;28;20048;-59
2022/02/19 00:19:25;;;;;;;5.78;3.17;;;26.20;47.70;;;;;;21062515;28;20052;-59
2022/02/19 00:29:26;;;;;;;3.20;2.20;;;26.30;47.40;;;;;;21052679;28;20072;-57
2022/02/19 00:39:29;;;;;;;3.60;2.40;;;26.30;47.20;;;;;;21056383;28;20102;-59
2022/02/19 00:49:31;;;;;;;4.20;2.40;;;26.00;47.20;;;;;;21013397;28;20499;-58
2022/02/19 00:59:33;;;;;;;3.30;2.38;;;25.50;47.60;;;;;;20998099;28;20048;-57
2022/02/19 01:09:35;;;;;;;2.72;2.00;;;24.90;48.30;;;;;;21033332;28;20052;-58
2022/02/19 01:19:36;;;;;;;3.75;2.38;;;24.20;49.10;;;;;;21061194;28;20057;-56
2022/02/19 01:29:38;;;;;;;3.13;2.05;;;23.60;49.80;;;;;;21048268;28;20131;-57
2022/02/19 01:39:40;;;;;;;3.13;2.20;;;22.80;51.10;;;;;;21027718;28;20059;-56
2022/02/19 01:49:42;;;;;;;4.65;2.42;;;22.20;52.10;;;;;;21032679;28;20055;-57
2022/02/19 01:59:44;;;;;;;4.05;2.42;;;21.60;53.30;;;;;;21012757;28;20451;-58
2022/02/19 02:09:46;;;;;;;3.17;1.65;;;21.00;54.20;;;;;;21022104;28;20045;-58
2022/02/19 02:19:48;;;;;;;4.07;2.40;;;20.70;55.30;;;;;;21030838;28;20072;-56
2022/02/19 02:29:49;;;;;;;3.88;2.25;;;20.40;56.00;;;;;;21045011;28;20570;-56
2022/02/19 02:39:54;;;;;;;3.42;1.83;;;20.50;56.70;;;;;;21062287;28;20052;-56
2022/02/19 02:49:57;;;;;;;2.60;1.80;;;22.10;54.90;;;;;;21031487;28;20036;-54
2022/02/19 03:00:02;;;;;;;2.33;1.95;;;23.40;53.40;;;;;;21022805;28;20499;-57
2022/02/19 03:10:07;;;;;;;2.95;1.80;;;24.40;52.00;;;;;;21013443;28;20047;-57
2022/02/19 03:20:18;;;;;;;2.38;1.50;;;25.00;51.00;;;;;;21000316;28;20048;-58
2022/02/19 03:30:20;;;;;;;2.47;1.58;;;25.20;50.30;;;;;;21048859;28;20044;-58
2022/02/19 03:40:23;;;;;;;2.95;1.92;;;24.90;50.20;;;;;;21070773;28;20052;-57
2022/02/19 03:50:25;;;;;;;2.20;1.60;;;24.30;50.70;;;;;;21051124;28;20388;-58
2022/02/19 04:00:27;;;;;;;1.85;1.40;;;23.70;51.30;;;;;;21021022;28;20561;-59
2022/02/19 04:10:28;;;;;;;2.50;1.90;;;23.20;51.80;;;;;;21022622;28;20073;-58
2022/02/19 04:20:31;;;;;;;3.40;1.80;;;22.40;52.90;;;;;;21059890;28;20048;-59
2022/02/19 04:30:33;;;;;;;2.53;1.52;;;21.80;53.90;;;;;;21025957;28;20048;-57
2022/02/19 04:40:36;;;;;;;1.85;1.42;;;21.20;55.00;;;;;;21012425;28;20075;-57
2022/02/19 04:50:39;;;;;;;2.97;1.67;;;20.80;55.80;;;;;;21038824;28;20044;-56
2022/02/19 05:00:41;;;;;;;2.10;1.50;;;20.60;56.50;;;;;;21009779;28;20067;-57
2022/02/19 05:10:43;;;;;;;1.98;1.30;;;20.30;57.10;;;;;;20987611;28;20476;-58
2022/02/19 05:20:45;;;;;;;2.50;1.60;;;20.20;57.50;;;;;;21001640;28;20049;-57
2022/02/19 05:30:48;;;;;;;2.13;1.25;;;20.00;58.00;;;;;;21031690;28;20508;-57
2022/02/19 05:40:50;;;;;;;3.63;1.70;;;19.70;58.80;;;;;;21064423;28;20097;-56
2022/02/19 05:50:52;;;;;;;1.48;1.10;;;20.60;58.30;;;;;;21049862;28;20044;-59
2022/02/19 06:00:55;;;;;;;1.20;0.80;;;22.20;56.40;;;;;;21040391;28;20052;-58
2022/02/19 06:10:58;;;;;;;1.98;1.20;;;23.70;54.20;;;;;;21027060;28;20163;-60
2022/02/19 06:21:00;;;;;;;3.38;1.08;;;24.60;52.60;;;;;;21045324;28;20062;-58
2022/02/19 06:31:02;;;;;;;1.58;0.93;;;24.80;51.50;;;;;;21005622;28;20076;-57
2022/02/19 06:41:08;;;;;;;1.70;1.02;;;24.40;51.50;;;;;;21006501;28;20085;-57
2022/02/19 06:51:12;;;;;;;;;;;23.80;51.70;;;;;;21077309;28;20139;-57
2022/02/19 07:01:15;;;;;;;1.50;1.08;;;23.00;52.10;;;;;;21080035;28;19959;-57
2022/02/19 07:11:17;;;;;;;1.90;0.98;;;22.20;53.80;;;;;;21068570;28;20411;-58
2022/02/19 07:21:20;;;;;;;1.63;1.10;;;21.60;54.50;;;;;;21042708;28;20503;-58
2022/02/19 07:31:22;;;;;;;1.17;0.80;;;21.00;55.10;;;;;;21058643;28;20101;-58
2022/02/19 07:41:25;;;;;;;1.50;0.80;;;;;;;;;;21073133;28;20436;-58
2022/02/19 08:01:49;;;;;;;1.73;0.82;;;20.20;57.00;;;;;;21075470;28;20087;-57
2022/02/19 08:11:51;;;;;;;5.03;0.90;;;20.00;57.10;;;;;;21075244;28;20122;-57
2022/02/19 08:21:53;;;;;;;2.22;0.70;;;19.90;57.80;;;;;;21072631;28;20039;-57
2022/02/19 08:31:55;;;;;;;4.05;0.80;;;19.70;58.00;;;;;;21071762;28;20044;-56
2022/02/19 08:42:17;;;;;;;2.63;0.75;;;19.60;58.40;;;;;;21070842;28;20044;-56
2022/02/19 08:52:46;;;;;;;2.08;0.90;;;;;;;;;;21068756;28;20568;-57
2022/02/19 09:02:58;;;;;;;2.03;0.70;;;21.60;57.50;;;;;;21051088;28;20051;-58
2022/02/19 09:13:02;;;;;;;3.80;0.98;;;23.10;55.60;;;;;;21069195;28;20400;-56
2022/02/19 09:23:05;;;;;;;3.70;0.82;;;24.20;53.70;;;;;;21045397;28;20396;-58
2022/02/19 09:33:08;;;;;;;1.75;0.65;;;24.30;53.20;;;;;;21064697;28;20077;-59
2022/02/19 09:53:27;;;;;;;4.90;0.63;;;23.90;53.30;;;;;;21000227;27;20395;-58
2022/02/19 10:03:29;;;;;;;4.60;0.77;;;23.20;53.40;;;;;;20970518;28;20056;-61
2022/02/19 10:13:33;;;;;;;6.38;1.63;;;;;;;;;;20968973;28;20480;-60
2022/02/19 10:23:35;;;;;;;5.57;1.83;;;22.70;53.90;;;;;;20968685;28;20105;-58
2022/02/19 10:33:39;;;;;;;8.40;1.75;;;21.80;55.60;;;;;;20963688;28;20084;-57
2022/02/19 10:43:41;;;;;;;12.30;1.52;;;21.40;56.60;;;;;;20965731;28;20083;-57
2022/02/19 10:57:46;;;;;;;7.03;1.75;;;21.20;55.90;;;;;;21057177;27;20940;-60
2022/02/19 11:07:49;;;;;;;4.00;1.27;;;20.90;56.50;;;;;;21054867;28;20055;-59
2022/02/19 11:17:52;;;;;;;6.97;1.40;;;20.70;57.20;;;;;;21055460;28;20051;-60
2022/02/19 11:28:20;;;;;;;7.07;1.45;;;20.70;57.40;;;;;;21054130;28;20056;-60
2022/02/19 11:38:32;;;;;;;4.32;1.02;;;20.70;57.80;;;;;;20971034;28;20157;-59
2022/02/19 11:48:34;;;;;;;3.38;0.90;;;20.50;58.20;;;;;;21001478;28;20132;-61
2022/02/19 12:08:18;;;;;;;2.75;0.80;;;20.50;57.60;;;;;;20966140;27;20413;-58
2022/02/19 12:18:54;;;;;;;10.50;1.30;;;21.30;56.30;;;;;;20854531;27;20058;-62
2022/02/19 12:29:20;;;;;;;3.58;0.73;;;23.00;54.70;;;;;;20869846;27;20056;-59
2022/02/19 12:39:22;;;;;;;4.50;1.25;;;24.40;52.30;;;;;;20899577;27;20049;-60
2022/02/19 12:49:24;;;;;;;5.05;2.00;;;25.20;50.00;;;;;;20856911;27;20090;-59
2022/02/19 12:59:30;;;;;;;4.93;1.50;;;25.00;48.80;;;;;;20818166;28;20053;-61
2022/02/19 13:09:33;;;;;;;2.25;1.05;;;24.60;48.00;;;;;;20855784;28;20065;-59
2022/02/19 13:19:36;;;;;;;3.55;1.17;;;24.30;47.30;;;;;;20785411;28;20050;-61
2022/02/19 13:29:39;;;;;;;5.15;1.17;;;24.00;46.60;;;;;;20788378;28;20494;-61
2022/02/19 13:39:43;;;;;;;2.55;1.10;;;23.70;46.30;;;;;;20787185;28;20153;-62
2022/02/19 13:49:47;;;;;;;3.65;1.10;;;23.30;46.60;;;;;;20793674;27;20061;-59
2022/02/19 14:00:09;;;;;;;2.25;1.23;;;23.10;47.30;;;;;;20773788;28;20507;-59
2022/02/19 14:10:11;;;;;;;3.38;1.05;;;22.80;48.30;;;;;;20781641;28;20062;-59
2022/02/19 14:20:16;;;;;;;2.45;1.20;;;22.50;49.30;;;;;;20785725;28;20144;-59
2022/02/19 14:30:21;;;;;;;2.00;0.88;;;22.30;50.40;;;;;;20754375;28;20114;-60
2022/02/19 14:40:23;;;;;;;4.10;1.33;;;22.20;50.60;;;;;;20774874;28;20106;-59
2022/02/19 14:50:25;;;;;;;3.42;1.00;;;21.80;51.40;;;;;;20805228;28;20050;-60
2022/02/19 15:00:26;;;;;;;7.30;1.20;;;21.70;52.00;;;;;;20777400;28;20049;-59
2022/02/19 15:10:28;;;;;;;5.53;0.95;;;21.50;52.90;;;;;;20802712;28;20170;-59
2022/02/19 15:20:29;;;;;;;3.17;1.00;;;21.30;53.60;;;;;;20781258;28;20388;-59
2022/02/19 15:30:31;;;;;;;4.55;1.02;;;21.30;53.70;;;;;;20758581;28;20133;-60
2022/02/19 15:40:33;;;;;;;2.97;1.17;;;21.20;53.90;;;;;;20767766;28;20049;-59
2022/02/19 15:50:34;;;;;;;2.95;0.98;;;21.10;54.20;;;;;;20790236;28;20053;-59
2022/02/19 16:00:36;;;;;;;3.92;1.48;;;21.00;54.60;;;;;;20772702;28;20050;-59
2022/02/19 16:10:37;;;;;;;1.95;0.70;;;21.00;55.00;;;;;;20795987;28;20060;-59
2022/02/19 16:20:39;;;;;;;1.35;0.55;;;20.90;55.40;;;;;;20806389;28;20054;-61
2022/02/19 16:30:42;;;;;;;2.72;0.68;;;20.80;55.80;;;;;;20802414;28;20148;-61
2022/02/19 16:40:44;;;;;;;1.10;0.57;;;20.60;56.10;;;;;;20772468;28;20136;-61
2022/02/19 16:50:45;;;;;;;2.47;0.40;;;20.50;56.60;;;;;;20765994;28;20069;-60
2022/02/19 17:00:47;;;;;;;1.20;0.82;;;20.40;56.90;;;;;;20782831;28;20060;-60
2022/02/19 17:10:50;;;;;;;2.58;1.10;;;20.30;57.30;;;;;;20791255;28;20118;-60
2022/02/19 17:20:53;;;;;;;2.55;0.65;;;20.20;57.90;;;;;;20812096;28;20064;-59
2022/02/19 17:30:54;;;;;;;9.00;1.83;;;20.10;58.50;;;;;;20802584;28;20054;-61
2022/02/19 17:40:58;;;;;;;20.33;4.05;;;20.10;59.00;;;;;;20782297;28;20136;-58
2022/02/19 17:51:00;;;;;;;30.55;4.63;;;20.00;60.30;;;;;;20800659;28;20484;-58
2022/02/19 18:01:02;;;;;;;22.75;4.03;;;20.00;61.30;;;;;;20777182;28;20050;-59
2022/02/19 18:11:06;;;;;;;12.20;3.72;;;20.00;61.80;;;;;;20789128;28;20054;-59
2022/02/19 18:21:07;;;;;;;16.40;2.92;;;20.00;61.90;;;;;;20774826;28;20408;-60
2022/02/19 18:31:09;;;;;;;13.55;3.20;;;20.00;61.70;;;;;;20796161;28;20115;-57
2022/02/19 18:41:11;;;;;;;16.00;3.20;;;20.00;61.90;;;;;;20760662;28;20053;-57
2022/02/19 18:51:13;;;;;;;13.63;2.90;;;20.00;62.00;;;;;;20744804;28;20133;-59
2022/02/19 19:01:14;;;;;;;11.45;2.67;;;20.00;62.10;;;;;;20783074;28;20137;-58
2022/02/19 19:11:17;;;;;;;8.98;2.35;;;19.90;62.10;;;;;;20728807;28;20087;-57
2022/02/19 19:21:19;;;;;;;10.00;2.58;;;19.90;61.80;;;;;;20742655;28;20390;-58
2022/02/19 19:31:21;;;;;;;6.50;2.28;;;19.80;61.90;;;;;;20750678;28;20118;-60
2022/02/19 19:41:25;;;;;;;9.52;2.10;;;19.70;62.10;;;;;;20808350;28;20087;-60
2022/02/19 19:51:28;;;;;;;6.10;3.00;;;19.70;62.20;;;;;;20775191;28;20437;-60
2022/02/19 20:01:29;;;;;;;7.03;2.47;;;19.70;62.40;;;;;;20807186;28;20057;-60
2022/02/19 20:11:31;;;;;;;6.40;2.40;;;19.70;62.60;;;;;;20804198;28;20071;-59
2022/02/19 20:21:33;;;;;;;7.18;2.50;;;19.60;62.60;;;;;;20799208;28;20507;-58
2022/02/19 20:31:35;;;;;;;6.90;2.67;;;19.60;62.70;;;;;;20791689;28;20170;-62
2022/02/19 20:41:39;;;;;;;15.40;2.83;;;19.50;62.70;;;;;;20794201;28;20091;-60
2022/02/19 20:51:41;;;;;;;5.95;2.28;;;19.40;62.80;;;;;;20819478;28;20084;-62
2022/02/19 21:01:43;;;;;;;8.50;2.67;;;19.50;62.80;;;;;;20791677;28;20416;-61
2022/02/19 21:11:46;;;;;;;7.60;2.63;;;19.40;62.80;;;;;;20775730;28;20065;-60
2022/02/19 21:21:48;;;;;;;13.07;2.83;;;19.40;62.90;;;;;;20801900;28;20090;-61
2022/02/19 21:31:49;;;;;;;5.40;1.80;;;19.40;63.00;;;;;;20780549;28;20161;-62
2022/02/19 21:41:51;;;;;;;11.98;2.80;;;19.30;62.90;;;;;;20766335;28;20147;-60
2022/02/19 21:51:52;;;;;;;12.00;2.50;;;19.30;63.10;;;;;;20775475;28;20061;-59
2022/02/19 22:01:54;;;;;;;7.30;2.00;;;19.10;60.80;;;;;;20780464;28;20084;-61
2022/02/19 22:11:56;;;;;;;6.55;2.08;;;19.00;59.00;;;;;;20780845;28;20053;-62
2022/02/19 22:21:59;;;;;;;8.88;2.58;;;18.90;57.70;;;;;;20786304;28;20099;-60
2022/02/19 22:32:01;;;;;;;12.30;2.88;;;19.00;58.50;;;;;;20781745;28;20465;-60
2022/02/19 22:42:03;;;;;;;9.95;2.42;;;18.90;59.10;;;;;;20767100;28;20473;-60
2022/02/19 22:52:05;;;;;;;10.30;2.20;;;19.00;59.60;;;;;;20761165;28;20050;-58
2022/02/19 23:02:07;;;;;;;5.78;3.13;;;19.00;60.10;;;;;;20758261;28;20078;-59
2022/02/19 23:12:09;;;;;;;6.68;2.15;;;18.90;60.60;;;;;;20750274;28;20057;-60
2022/02/19 23:22:11;;;;;;;4.68;1.98;;;18.90;60.60;;;;;;20756831;28;20053;-59
2022/02/19 23:32:12;;;;;;;4.90;1.75;;;18.90;61.00;;;;;;20767954;28;20084;-61
2022/02/19 23:42:14;;;;;;;7.18;2.00;;;18.90;61.00;;;;;;20767366;28;20094;-59
2022/02/19 23:52:16;;;;;;;2.80;1.20;;;18.90;61.10;;;;;;20774916;28;20404;-60
